Time;durP1;ratioP1;P1;durP2;ratioP2;P2;SDS_P1;SDS_P2;PMS_P1;PMS_P2;Temp;Humidity;BMP_temperature;BMP_pressure;BME280_temperature;BME280_humidity;BME280_pressure;Samples;Min_cycle;Max_cycle;Signal;HPM_P1;HPM_P2
2023/01/15 00:01:25;;;;;;;8.53;5.23;;;;;;;2.88;100.00;100722.28;5030916;28;20021;-75
2023/01/15 00:03:52;;;;;;;6.50;3.80;;;;;;;2.81;100.00;100718.44;5031296;28;20108;-74
2023/01/15 00:06:18;;;;;;;7.30;3.70;;;;;;;2.91;100.00;100726.50;5031348;28;20276;-75
2023/01/15 00:08:44;;;;;;;6.03;4.30;;;;;;;2.82;100.00;100717.47;5030958;28;20264;-76
2023/01/15 00:11:10;;;;;;;5.77;3.70;;;;;;;2.90;100.00;100730.09;5030490;28;20315;-76
2023/01/15 00:13:36;;;;;;;9.00;3.70;;;;;;;2.73;100.00;100702.38;4997271;28;20295;-75
2023/01/15 00:16:08;;;;;;;4.37;3.50;;;;;;;2.93;100.00;100729.84;5031415;28;20037;-74
2023/01/15 00:18:34;;;;;;;9.20;4.03;;;;;;;2.97;100.00;100736.56;5035209;28;20424;-75
2023/01/15 00:21:04;;;;;;;7.67;4.23;;;;;;;2.94;100.00;100732.38;5034882;28;20252;-75
2023/01/15 00:29:01;;;;;;;8.67;4.30;;;;;;;2.74;100.00;100720.69;5016508;28;20271;-75
2023/01/15 00:31:30;;;;;;;6.37;3.77;;;;;;;2.95;100.00;100730.56;5034438;28;20264;-75
2023/01/15 00:33:56;;;;;;;6.27;3.63;;;;;;;2.96;100.00;100729.63;5034155;28;20030;-75
2023/01/15 00:36:22;;;;;;;8.07;4.17;;;;;;;2.93;100.00;100724.59;5000149;28;20334;-74
2023/01/15 00:38:48;;;;;;;5.73;3.73;;;;;;;2.88;100.00;100717.00;5000030;28;20040;-76
2023/01/15 00:41:13;;;;;;;6.83;2.93;;;;;;;2.92;100.00;100723.75;5016867;28;20408;-74
2023/01/15 00:43:39;;;;;;;7.63;4.83;;;;;;;2.90;100.00;100733.56;5034405;28;20255;-74
2023/01/15 00:46:07;;;;;;;6.03;3.10;;;;;;;2.85;100.00;100716.41;5034003;28;20140;-76
2023/01/15 00:48:34;;;;;;;4.95;3.45;;;;;;;2.77;100.00;100707.31;5001623;28;20033;-75
2023/01/15 00:50:59;;;;;;;5.87;3.27;;;;;;;2.95;100.00;100728.78;5008677;28;20048;-74
2023/01/15 00:53:25;;;;;;;6.13;3.27;;;;;;;2.89;100.00;100713.47;5045015;28;20256;-73
2023/01/15 00:55:51;;;;;;;4.20;3.60;;;;;;;2.95;100.00;100717.41;5031815;28;20037;-75
2023/01/15 00:58:17;;;;;;;6.30;3.43;;;;;;;2.95;100.00;100720.06;5049083;28;20041;-76
2023/01/15 01:00:43;;;;;;;6.03;3.97;;;;;;;2.96;100.00;100724.34;5043617;28;20544;-74
2023/01/15 01:03:09;;;;;;;5.07;3.90;;;;;;;2.93;100.00;100729.84;5034049;28;20288;-76
2023/01/15 01:05:35;;;;;;;7.23;4.30;;;;;;;2.95;100.00;100739.31;5016093;28;20076;-76
2023/01/15 01:08:00;;;;;;;5.93;3.67;;;;;;;2.95;100.00;100734.03;5016296;28;20122;-75
2023/01/15 01:10:27;;;;;;;5.03;3.93;;;;;;;2.93;100.00;100721.97;5034153;28;20026;-76
2023/01/15 01:12:54;;;;;;;6.20;3.30;;;;;;;2.94;100.00;100732.38;5015934;28;20037;-76
2023/01/15 01:15:21;;;;;;;6.47;4.30;;;;;;;2.95;100.00;100731.41;5000852;28;20291;-76
2023/01/15 01:17:50;;;;;;;7.17;4.00;;;;;;;2.96;100.00;100727.00;5046856;28;20276;-75
2023/01/15 01:20:18;;;;;;;6.67;4.03;;;;;;;2.90;100.00;100719.56;5032079;28;20271;-73
2023/01/15 01:22:47;;;;;;;5.67;3.90;;;;;;;2.97;100.00;100729.50;5029773;28;20253;-74
2023/01/15 01:25:12;;;;;;;6.43;3.10;;;;;;;2.93;100.00;100716.69;5040806;28;20252;-74
2023/01/15 01:27:38;;;;;;;5.47;3.83;;;;;;;2.96;100.00;100716.47;5033044;28;20033;-74
2023/01/15 01:30:04;;;;;;;6.97;3.53;;;;;;;2.92;100.00;100713.22;5033080;28;20028;-75
2023/01/15 01:32:30;;;;;;;5.83;3.23;;;;;;;2.93;100.00;100712.28;4999244;28;20025;-75
2023/01/15 01:34:56;;;;;;;6.23;3.33;;;;;;;2.96;100.00;100708.56;5033118;28;20356;-75
2023/01/15 01:37:22;;;;;;;5.50;3.00;;;;;;;2.92;100.00;100701.88;5015246;28;20037;-74
2023/01/15 01:39:47;;;;;;;6.17;2.87;;;;;;;2.97;100.00;100710.25;5015524;28;20470;-74
2023/01/15 01:42:15;;;;;;;5.63;3.20;;;;;;;2.94;100.00;100713.13;5034835;28;20124;-75
2023/01/15 01:44:44;;;;;;;3.60;3.00;;;;;;;2.95;100.00;100709.53;5000384;28;20028;-74
2023/01/15 01:47:21;;;;;;;3.85;3.30;;;;;;;2.88;100.00;100697.75;5014862;28;20499;-75
2023/01/15 01:49:51;;;;;;;6.73;3.03;;;;;;;2.95;100.00;100694.59;5014976;28;20029;-77
2023/01/15 01:52:22;;;;;;;8.00;3.40;;;;;;;2.79;100.00;100671.22;5015190;28;20693;-75
2023/01/15 01:54:48;;;;;;;5.40;3.43;;;;;;;2.93;100.00;100685.13;5032923;28;20343;-73
2023/01/15 01:57:15;;;;;;;5.73;3.23;;;;;;;2.93;100.00;100690.41;5032712;28;20283;-75
2023/01/15 01:59:42;;;;;;;7.37;4.20;;;;;;;2.87;100.00;100688.19;4998214;28;20272;-75
2023/01/15 02:02:07;;;;;;;8.17;4.57;;;;;;;2.90;100.00;100695.88;5015131;28;20275;-78
2023/01/15 02:04:34;;;;;;;5.23;2.90;;;;;;;2.78;100.00;100676.59;5014569;28;20723;-74
2023/01/15 02:07:02;;;;;;;3.73;2.70;;;;;;;2.91;100.00;100693.13;5032769;28;20029;-75
2023/01/15 02:09:29;;;;;;;3.73;3.07;;;;;;;2.89;100.00;100691.53;5032843;28;20252;-76
2023/01/15 02:12:07;;;;;;;6.30;3.30;;;;;;;2.60;100.00;100647.25;5032301;28;20329;-76
2023/01/15 02:14:47;;;;;;;6.67;3.53;;;;;;;2.87;100.00;100688.19;5014882;28;20272;-76
2023/01/15 02:17:41;;;;;;;5.23;3.27;;;;;;;2.92;100.00;100693.97;5014859;28;20334;-74
2023/01/15 02:20:29;;;;;;;5.03;2.80;;;;;;;2.89;100.00;100691.53;5028841;28;20421;-76
2023/01/15 02:23:44;;;;;;;8.60;3.97;;;;;;;2.84;100.00;100672.66;5032652;28;20591;-74
2023/01/15 02:26:28;;;;;;;6.60;3.30;;;;;;;2.90;100.00;100677.47;5011829;28;20056;-76
2023/01/15 02:28:56;;;;;;;4.47;2.83;;;;;;;2.88;100.00;100684.63;4998355;28;20256;-73
2023/01/15 02:31:35;;;;;;;3.25;2.80;;;;;;;2.87;100.00;100693.47;5032773;28;20264;-74
2023/01/15 02:34:09;;;;;;;4.47;3.20;;;;;;;2.83;100.00;100695.47;5033170;28;20481;-76
2023/01/15 02:36:40;;;;;;;4.03;3.13;;;;;;;2.85;100.00;100692.72;4999140;28;20056;-75
2023/01/15 02:39:10;;;;;;;3.90;3.33;;;;;;;2.76;100.00;100683.75;5033460;28;20289;-75
2023/01/15 02:41:41;;;;;;;6.57;3.33;;;;;;;2.82;100.00;100690.34;5043496;28;20264;-75
2023/01/15 02:44:10;;;;;;;5.03;3.10;;;;;;;2.75;100.00;100689.97;5055968;28;20260;-73
2023/01/15 02:46:39;;;;;;;5.10;2.95;;;;;;;2.74;100.00;100683.88;5054163;28;20325;-73
2023/01/15 02:49:08;;;;;;;6.80;3.20;;;;;;;2.81;100.00;100692.13;5048034;28;20120;-75
2023/01/15 02:51:40;;;;;;;4.13;3.20;;;;;;;2.78;100.00;100701.09;5042199;28;21426;-75
2023/01/15 02:54:10;;;;;;;3.43;3.13;;;;;;;2.77;100.00;100693.31;5042514;28;20041;-75
2023/01/15 02:56:37;;;;;;;5.27;3.83;;;;;;;2.76;100.00;100687.22;5033176;28;20284;-75
2023/01/15 02:59:10;;;;;;;6.43;4.10;;;;;;;2.73;100.00;100679.56;5014460;28;20272;-74
2023/01/15 03:01:41;;;;;;;3.97;2.90;;;;;;;2.80;100.00;100693.09;5032129;28;20371;-75
2023/01/15 03:04:16;;;;;;;5.53;3.40;;;;;;;2.73;100.00;100690.06;5031794;28;20298;-76
2023/01/15 03:06:42;;;;;;;4.83;3.23;;;;;;;2.71;100.00;100684.09;5032110;28;20249;-75
2023/01/15 03:09:08;;;;;;;5.87;2.87;;;;;;;2.70;100.00;100671.06;5032029;28;20256;-75
2023/01/15 03:11:43;;;;;;;4.90;2.97;;;;;;;2.72;100.00;100666.53;5032075;28;20023;-74
2023/01/15 03:14:19;;;;;;;4.47;3.40;;;;;;;2.78;100.00;100671.31;5032331;28;20271;-76
2023/01/15 03:16:51;;;;;;;5.47;3.50;;;;;;;2.80;100.00;100677.31;5032594;28;20315;-76
2023/01/15 03:19:28;;;;;;;3.73;3.00;;;;;;;2.75;100.00;100667.13;5014426;28;20272;-75
2023/01/15 03:21:56;;;;;;;6.40;4.20;;;;;;;2.77;100.00;100677.53;5032318;28;20295;-74
2023/01/15 03:24:40;;;;;;;5.45;3.58;;;;;;;2.77;100.00;100667.03;5014919;28;20256;-75
2023/01/15 03:27:07;;;;;;;4.20;3.43;;;;;;;2.74;100.00;100675.97;5032225;28;20465;-76
2023/01/15 03:29:37;;;;;;;5.27;4.40;;;;;;;2.66;100.00;100654.69;5014480;28;20268;-75
2023/01/15 03:32:03;;;;;;;4.97;3.77;;;;;;;2.73;100.00;100676.94;5032121;28;20252;-74
2023/01/15 03:34:51;;;;;;;7.37;4.13;;;;;;;2.72;100.00;100677.88;5032074;28;20263;-76
2023/01/15 03:37:22;;;;;;;6.30;3.40;;;;;;;2.70;100.00;100677.16;4999746;28;20371;-74
2023/01/15 03:39:48;;;;;;;5.20;3.97;;;;;;;2.69;100.00;100675.50;5031872;28;20608;-76
2023/01/15 03:42:22;;;;;;;4.70;4.20;;;;;;;2.71;100.00;100668.31;5031660;28;20338;-74
2023/01/15 03:45:22;;;;;;;7.20;4.10;;;;;;;2.68;100.00;100679.06;5032141;28;20249;-74
2023/01/15 03:48:24;;;;;;;9.57;5.27;;;;;;;2.67;100.00;100676.56;5013863;28;20435;-75
2023/01/15 03:50:57;;;;;;;6.40;4.23;;;;;;;2.69;100.00;100675.50;5018918;28;20731;-74
2023/01/15 03:53:39;;;;;;;6.77;4.10;;;;;;;2.63;100.00;100660.16;5035440;28;20280;-75
2023/01/15 03:56:07;;;;;;;5.83;4.33;;;;;;;2.73;100.00;100676.94;5017372;28;20284;-74
2023/01/15 03:58:52;;;;;;;6.57;3.95;;;;;;;2.76;100.00;100679.31;5035540;28;20271;-74
2023/01/15 04:01:26;;;;;;;6.53;4.77;;;;;;;2.76;100.00;100673.22;5018034;28;20030;-75
2023/01/15 04:03:53;;;;;;;8.77;4.50;;;;;;;2.78;100.00;100680.06;5036356;28;20330;-74
2023/01/15 04:06:20;;;;;;;10.17;5.17;;;;;;;2.79;100.00;100676.47;5035870;28;20267;-76
2023/01/15 04:08:46;;;;;;;6.07;3.93;;;;;;;2.76;100.00;100674.06;5035618;28;20811;-73
2023/01/15 04:11:12;;;;;;;7.73;4.97;;;;;;;2.74;100.00;100673.34;5035922;28;20249;-73
2023/01/15 04:13:38;;;;;;;6.73;4.27;;;;;;;2.71;100.00;100659.59;5018484;28;20355;-75
2023/01/15 04:16:03;;;;;;;10.17;4.70;;;;;;;2.73;100.00;100650.63;5036646;28;20033;-74
2023/01/15 04:18:29;;;;;;;6.90;5.63;;;;;;;2.75;100.00;100667.13;5038090;28;20037;-73
2023/01/15 04:20:54;;;;;;;5.60;4.80;;;;;;;2.75;100.00;100653.97;5035398;28;20029;-74
2023/01/15 04:23:21;;;;;;;8.70;4.47;;;;;;;2.72;100.00;100645.50;5035336;28;20461;-74
2023/01/15 04:25:46;;;;;;;8.87;5.23;;;;;;;2.75;100.00;100643.47;5035262;28;20465;-75
2023/01/15 04:28:12;;;;;;;7.27;5.60;;;;;;;2.77;100.00;100641.56;5034799;28;20264;-74
2023/01/15 04:30:38;;;;;;;6.13;5.50;;;;;;;2.80;100.00;100635.22;5034672;28;20041;-75
2023/01/15 04:33:04;;;;;;;7.07;6.37;;;;;;;2.82;100.00;100641.19;5034795;28;20045;-74
2023/01/15 04:35:29;;;;;;;9.63;5.87;;;;;;;2.79;100.00;100631.75;5034607;28;20117;-74
2023/01/15 04:37:59;;;;;;;6.70;4.60;;;;;;;2.80;100.00;100640.47;5034582;28;20287;-73
2023/01/15 04:45:55;;;;;;;5.97;5.10;;;;;;;2.88;100.00;100632.00;5033750;28;20292;-73
2023/01/15 04:48:21;;;;;;;7.00;5.63;;;;;;;2.92;100.00;100644.00;4999847;28;20330;-73
2023/01/15 04:50:50;;;;;;;5.90;4.87;;;;;;;2.76;100.00;100612.75;5015714;28;20256;-74
2023/01/15 04:53:15;;;;;;;12.63;8.00;;;;;;;2.91;100.00;100632.63;5034013;28;20017;-73
2023/01/15 04:55:41;;;;;;;6.70;5.73;;;;;;;2.91;100.00;100631.81;5016323;28;20417;-73
2023/01/15 04:58:07;;;;;;;7.67;5.60;;;;;;;2.84;100.00;100625.31;5034204;28;20026;-73
2023/01/15 05:00:32;;;;;;;8.60;6.77;;;;;;;2.85;100.00;100637.50;5033825;28;20407;-73
2023/01/15 05:02:58;;;;;;;10.40;6.33;;;;;;;2.85;100.00;100637.50;5032872;28;20032;-74
2023/01/15 05:05:24;;;;;;;9.77;7.10;;;;;;;2.82;100.00;100632.47;5034006;28;20480;-72
2023/01/15 05:07:50;;;;;;;8.73;7.57;;;;;;;2.87;100.00;100630.34;5033879;28;20249;-73
2023/01/15 05:10:15;;;;;;;12.20;7.90;;;;;;;2.85;100.00;100626.97;5033924;28;20037;-73
2023/01/15 05:12:41;;;;;;;10.83;7.63;;;;;;;2.77;100.00;100620.53;5033762;28;20354;-76
2023/01/15 05:15:07;;;;;;;11.40;7.63;;;;;;;2.92;100.00;100636.09;5033574;28;20108;-72
2023/01/15 05:17:33;;;;;;;10.50;8.57;;;;;;;2.90;100.00;100636.22;5033542;28;20033;-74
2023/01/15 05:19:58;;;;;;;10.73;7.63;;;;;;;2.66;100.00;100591.56;5033691;28;20101;-73
2023/01/15 05:22:24;;;;;;;9.10;6.53;;;;;;;2.89;100.00;100624.03;5033716;28;20071;-73
2023/01/15 05:24:50;;;;;;;8.23;6.43;;;;;;;2.90;100.00;100628.34;5033543;28;20037;-72
2023/01/15 05:27:15;;;;;;;10.20;6.90;;;;;;;2.93;100.00;100622.00;5033605;28;20045;-73
2023/01/15 05:29:41;;;;;;;10.83;7.03;;;;;;;2.97;100.00;100620.81;5033452;28;20032;-72
2023/01/15 05:32:06;;;;;;;9.80;7.03;;;;;;;2.93;100.00;100612.31;5033715;28;20025;-72
2023/01/15 05:34:32;;;;;;;12.57;7.00;;;;;;;2.95;100.00;100617.44;4999264;28;20374;-73
2023/01/15 05:36:57;;;;;;;10.33;7.10;;;;;;;2.93;100.00;100635.16;5033514;28;20041;-74
2023/01/15 05:39:23;;;;;;;8.87;6.40;;;;;;;2.91;100.00;100632.63;5033508;28;20025;-73
2023/01/15 05:41:48;;;;;;;9.93;6.60;;;;;;;2.93;100.00;100627.25;5033107;28;20469;-73
2023/01/15 05:44:15;;;;;;;8.40;6.63;;;;;;;2.94;100.00;100615.78;5033187;28;20037;-74
2023/01/15 05:46:42;;;;;;;9.03;7.27;;;;;;;2.90;100.00;100598.56;5015192;28;20392;-73
2023/01/15 05:49:11;;;;;;;10.03;7.77;;;;;;;2.96;100.00;100613.88;5032929;28;20284;-74
2023/01/15 05:51:37;;;;;;;;;;;;;;;2.98;100.00;100604.06;5033447;28;20268;-74
2023/01/15 05:54:04;;;;;;;9.90;7.63;;;;;;;2.89;100.00;100599.47;5033108;28;20329;-72
2023/01/15 05:56:30;;;;;;;13.47;8.03;;;;;;;2.86;100.00;100594.47;5032742;28;20034;-73
2023/01/15 05:58:56;;;;;;;12.40;9.53;;;;;;;2.88;100.00;100592.56;5032709;28;20403;-74
2023/01/15 06:01:21;;;;;;;9.63;7.43;;;;;;;2.71;100.00;100560.50;5032816;28;20036;-73
2023/01/15 06:03:48;;;;;;;12.03;7.40;;;;;;;2.88;100.00;100574.97;5033106;28;20029;-74
2023/01/15 06:06:40;;;;;;;9.43;7.63;;;;;;;2.90;100.00;100569.63;5033155;28;20088;-72
2023/01/15 06:09:06;;;;;;;11.47;7.90;;;;;;;2.90;100.00;100572.25;5032846;28;20288;-74
2023/01/15 06:11:32;;;;;;;13.07;8.17;;;;;;;2.88;100.00;100566.25;5032577;28;20261;-75
2023/01/15 06:13:58;;;;;;;10.17;7.80;;;;;;;2.75;100.00;100547.97;5032561;28;20084;-74
2023/01/15 06:16:24;;;;;;;11.33;8.20;;;;;;;2.83;100.00;100560.50;5032582;28;20044;-72
2023/01/15 06:18:49;;;;;;;12.93;7.90;;;;;;;2.88;100.00;100564.47;5032419;28;20256;-72
2023/01/15 06:21:16;;;;;;;11.23;8.47;;;;;;;2.82;100.00;100545.69;5032512;28;20025;-72
2023/01/15 06:23:42;;;;;;;13.33;8.70;;;;;;;2.89;100.00;100550.38;5014468;28;20026;-74
2023/01/15 06:26:16;;;;;;;13.07;8.67;;;;;;;2.87;100.00;100554.88;5032385;28;20740;-76
2023/01/15 06:28:42;;;;;;;15.30;9.27;;;;;;;2.77;100.00;100554.78;5032596;28;20264;-75
2023/01/15 06:31:11;;;;;;;13.70;10.00;;;;;;;2.74;100.00;100554.16;5032377;28;20990;-72
2023/01/15 06:33:37;;;;;;;13.77;8.93;;;;;;;2.77;100.00;100556.56;5032193;28;20261;-74
2023/01/15 06:36:04;;;;;;;13.77;9.03;;;;;;;2.70;100.00;100543.06;5032365;28;20039;-73
2023/01/15 06:38:30;;;;;;;10.07;8.30;;;;;;;2.79;100.00;100565.16;5032293;28;20022;-73
2023/01/15 06:40:57;;;;;;;12.53;9.40;;;;;;;2.79;100.00;100555.50;5032184;28;20252;-73
2023/01/15 06:49:22;;;;;;;14.20;9.33;;;;;;;2.70;100.00;100529.91;5032441;28;20318;-73
2023/01/15 06:51:47;;;;;;;19.87;10.00;;;;;;;2.82;100.00;100543.06;5032252;28;20268;-73
2023/01/15 06:54:13;;;;;;;13.17;9.43;;;;;;;2.74;100.00;100520.81;5032518;28;20065;-74
2023/01/15 06:56:38;;;;;;;12.73;9.43;;;;;;;2.69;100.00;100512.47;5043361;28;20030;-74
2023/01/15 06:59:04;;;;;;;18.93;10.17;;;;;;;2.66;100.00;100507.44;5045584;28;20051;-68
2023/01/15 07:01:30;;;;;;;14.57;9.67;;;;;;;2.71;100.00;100497.41;5035460;28;20079;-74
2023/01/15 07:03:56;;;;;;;15.60;9.33;;;;;;;2.71;100.00;100504.44;5014773;28;20029;-73
2023/01/15 07:06:21;;;;;;;14.33;9.93;;;;;;;2.67;100.00;100498.59;5031892;28;20067;-73
2023/01/15 07:08:47;;;;;;;13.70;9.33;;;;;;;2.62;100.00;100484.97;5013784;28;20037;-75
2023/01/15 07:11:13;;;;;;;11.00;8.67;;;;;;;2.67;100.00;100477.56;5014076;28;20604;-75
2023/01/15 07:13:39;;;;;;;19.37;9.70;;;;;;;2.68;100.00;100487.13;5032060;28;20495;-74
2023/01/15 07:16:04;;;;;;;13.80;8.87;;;;;;;2.62;100.00;100477.09;5031622;28;20037;-74
2023/01/15 07:18:32;;;;;;;17.03;9.87;;;;;;;2.60;100.00;100475.50;5031798;28;20029;-73
2023/01/15 07:20:57;;;;;;;17.27;10.67;;;;;;;2.63;100.00;100485.81;5032060;28;20033;-73
2023/01/15 07:23:25;;;;;;;12.53;9.93;;;;;;;2.52;100.00;100477.88;5015335;28;20263;-75
2023/01/15 07:25:52;;;;;;;12.53;9.47;;;;;;;2.52;100.00;100478.72;5015826;28;20029;-74
2023/01/15 07:28:18;;;;;;;16.03;10.07;;;;;;;2.47;100.00;100480.88;5037823;28;20264;-72
2023/01/15 07:30:43;;;;;;;12.43;9.13;;;;;;;2.45;100.00;100477.53;5036221;28;20279;-73
2023/01/15 07:33:09;;;;;;;14.37;9.37;;;;;;;2.43;100.00;100463.66;5036084;28;20380;-74
2023/01/15 07:35:35;;;;;;;12.70;10.23;;;;;;;2.44;100.00;100470.59;5036380;28;20117;-72
2023/01/15 07:38:01;;;;;;;17.43;10.23;;;;;;;2.38;100.00;100455.31;5036111;28;20115;-74
2023/01/15 07:40:27;;;;;;;13.43;9.77;;;;;;;2.40;100.00;100464.75;5018548;28;20271;-73
2023/01/15 07:51:09;;;;;;;15.97;9.50;;;;;;;2.37;100.00;100451.00;5035845;28;20264;-73
2023/01/15 07:53:34;;;;;;;14.07;8.37;;;;;;;2.37;100.00;100441.34;5036709;28;20253;-73
2023/01/15 07:56:09;;;;;;;11.97;8.33;;;;;;;2.36;100.00;100431.78;5035915;28;20033;-74
2023/01/15 07:58:35;;;;;;;12.30;8.43;;;;;;;2.38;100.00;100429.88;5017643;28;20025;-74
2023/01/15 08:01:01;;;;;;;11.37;7.90;;;;;;;2.37;100.00;100427.34;5035632;28;20271;-72
2023/01/15 08:03:26;;;;;;;18.83;11.80;;;;;;;2.36;100.00;100436.19;5035282;28;20031;-74
2023/01/15 08:05:51;;;;;;;18.17;11.67;;;;;;;2.38;100.00;100442.16;5017282;28;20044;-72
2023/01/15 08:08:20;;;;;;;13.80;10.13;;;;;;;2.33;100.00;100439.06;5035413;28;20365;-74
2023/01/15 08:16:14;;;;;;;17.90;10.57;;;;;;;2.32;100.00;100427.72;5035944;28;20276;-75
2023/01/15 08:19:03;;;;;;;13.00;9.73;;;;;;;2.40;100.00;100416.59;5017048;28;20267;-77
2023/01/15 08:21:29;;;;;;;14.03;8.40;;;;;;;2.42;100.00;100419.94;5034920;28;20082;-76
2023/01/15 08:24:00;;;;;;;12.83;8.13;;;;;;;2.36;100.00;100416.00;5034584;28;20757;-74
2023/01/15 08:26:33;;;;;;;12.83;8.17;;;;;;;2.24;100.00;100390.66;5034489;28;20022;-78
2023/01/15 08:29:05;;;;;;;10.93;7.90;;;;;;;2.30;100.00;100384.91;5034404;28;20728;-78
2023/01/15 08:31:56;;;;;;;11.93;9.00;;;;;;;2.32;100.00;100384.84;5015696;28;20264;-77
2023/01/15 08:34:21;;;;;;;12.33;8.53;;;;;;;2.28;100.00;100383.38;4976666;28;20272;-75
2023/01/15 08:36:48;;;;;;;9.30;7.47;;;;;;;2.30;100.00;100371.78;4993098;28;20278;-76
2023/01/15 08:39:14;;;;;;;10.83;8.23;;;;;;;2.33;100.00;100387.34;4992408;28;20037;-75
2023/01/15 08:41:40;;;;;;;10.83;7.20;;;;;;;2.26;100.00;100372.16;4992569;28;20262;-73
2023/01/15 08:44:06;;;;;;;11.57;8.80;;;;;;;2.20;100.00;100367.38;4976093;28;20112;-74
2023/01/15 08:46:35;;;;;;;11.53;7.63;;;;;;;2.30;100.00;100379.66;4992581;28;20046;-74
2023/01/15 08:49:26;;;;;;;13.07;9.30;;;;;;;2.33;100.00;100389.13;4993034;28;20646;-76
2023/01/15 08:51:51;;;;;;;11.43;7.67;;;;;;;2.33;100.00;100368.94;4975759;28;20274;-73
2023/01/15 08:54:19;;;;;;;10.13;8.20;;;;;;;2.28;100.00;100364.97;4992474;28;20525;-75
2023/01/15 08:56:45;;;;;;;14.60;7.70;;;;;;;2.36;100.00;100368.69;4992692;28;20073;-71
2023/01/15 08:59:11;;;;;;;12.23;8.37;;;;;;;2.40;100.00;100366.66;4992813;28;20625;-74
2023/01/15 09:01:36;;;;;;;10.03;7.47;;;;;;;2.42;100.00;100351.63;4992403;28;20296;-75
2023/01/15 09:04:02;;;;;;;11.60;8.07;;;;;;;2.41;100.00;100328.91;4992326;28;20199;-73
2023/01/15 09:06:28;;;;;;;9.23;7.73;;;;;;;2.48;100.00;100330.09;4992173;28;20513;-76
2023/01/15 09:08:53;;;;;;;13.10;8.10;;;;;;;2.51;100.00;100324.59;4992256;28;20419;-76
2023/01/15 09:11:21;;;;;;;13.73;8.30;;;;;;;2.45;100.00;100318.03;5005450;28;20045;-71
2023/01/15 09:13:48;;;;;;;11.53;8.23;;;;;;;2.49;100.00;100313.38;5033647;28;20296;-72
2023/01/15 09:16:16;;;;;;;11.97;8.33;;;;;;;2.49;100.00;100306.31;5033472;28;20485;-72
2023/01/15 09:18:42;;;;;;;9.93;8.07;;;;;;;2.53;100.00;100301.66;5033729;28;20259;-72
2023/01/15 09:21:07;;;;;;;10.53;8.10;;;;;;;2.54;100.00;100298.06;5034013;28;20267;-75
2023/01/15 09:23:33;;;;;;;13.07;9.53;;;;;;;2.54;100.00;100305.94;5034903;28;20604;-72
2023/01/15 09:26:01;;;;;;;10.80;7.70;;;;;;;2.49;100.00;100302.84;5034334;28;20361;-70
2023/01/15 09:28:28;;;;;;;10.48;8.38;;;;;;;2.45;100.00;100289.13;5035980;28;20021;-75
2023/01/15 09:30:53;;;;;;;10.80;8.73;;;;;;;2.34;100.00;100268.13;5051579;28;20388;-76
2023/01/15 09:33:19;;;;;;;11.33;8.40;;;;;;;2.33;100.00;100269.09;5054255;28;20308;-72
2023/01/15 09:35:45;;;;;;;11.80;8.17;;;;;;;2.33;100.00;100263.84;5053729;28;20026;-74
2023/01/15 09:38:12;;;;;;;13.47;9.17;;;;;;;2.41;100.00;100265.84;5023818;28;20260;-76
2023/01/15 09:40:56;;;;;;;10.70;8.37;;;;;;;2.37;100.00;100248.66;5034084;28;20279;-76
2023/01/15 09:43:53;;;;;;;13.03;9.60;;;;;;;2.37;100.00;100246.03;5033752;28;20299;-75
2023/01/15 09:46:26;;;;;;;12.10;9.57;;;;;;;2.33;100.00;100239.34;5033432;28;20379;-73
2023/01/15 09:49:03;;;;;;;13.40;8.77;;;;;;;2.41;100.00;100223.78;5033062;28;20802;-78
2023/01/15 09:51:46;;;;;;;11.17;8.57;;;;;;;2.36;100.00;100220.72;5034168;28;20275;-77
2023/01/15 09:54:17;;;;;;;16.87;9.00;;;;;;;2.31;100.00;100215.78;5033777;28;20264;-75
2023/01/15 09:56:43;;;;;;;11.77;8.27;;;;;;;2.26;100.00;100202.19;5033299;28;20287;-74
2023/01/15 09:59:33;;;;;;;10.20;7.80;;;;;;;2.26;100.00;100198.72;5017602;28;20272;-74
2023/01/15 10:02:01;;;;;;;12.50;8.30;;;;;;;2.22;100.00;100186.81;5033239;28;20355;-74
2023/01/15 10:04:44;;;;;;;13.82;8.77;;;;;;;2.25;100.00;100191.81;5032841;28;20260;-71
2023/01/15 10:07:52;;;;;;;14.53;9.30;;;;;;;2.25;100.00;100176.06;5033309;28;20033;-77
2023/01/15 10:10:22;;;;;;;12.63;9.85;;;;;;;2.22;100.00;100160.53;5033290;28;20628;-77
2023/01/15 10:12:59;;;;;;;13.87;9.50;;;;;;;2.24;100.00;100153.38;5017590;28;20048;-76
2023/01/15 10:15:43;;;;;;;14.90;8.97;;;;;;;2.20;100.00;100146.69;5033153;28;20260;-77
2023/01/15 10:18:18;;;;;;;15.67;9.40;;;;;;;2.18;100.00;100147.66;5033031;28;20261;-76
2023/01/15 10:21:30;;;;;;;14.73;8.77;;;;;;;2.18;100.00;100138.94;5031773;28;20279;-77
2023/01/15 10:24:38;;;;;;;17.00;9.47;;;;;;;2.15;100.00;100129.50;5017510;28;20310;-76
2023/01/15 10:27:37;;;;;;;16.87;9.37;;;;;;;2.13;100.00;100099.91;5015252;28;20260;-77
2023/01/15 10:30:15;;;;;;;13.30;8.70;;;;;;;2.05;100.00;100097.06;4972268;28;20884;-76
2023/01/15 10:32:52;;;;;;;14.07;8.65;;;;;;;1.98;100.00;100093.25;4984794;28;20264;-72
2023/01/15 10:35:36;;;;;;;13.73;10.30;;;;;;;2.05;100.00;100083.94;5032629;28;20040;-70
2023/01/15 10:38:37;;;;;;;14.60;8.43;;;;;;;2.10;100.00;100094.91;5015063;28;20260;-78
2023/01/15 10:41:31;;;;;;;12.90;9.77;;;;;;;2.14;100.00;100091.06;5033230;28;20253;-76
2023/01/15 10:54:53;;;;;;;12.83;8.40;;;;;;;1.89;99.71;100012.59;4973859;28;20305;-75
2023/01/15 10:57:54;;;;;;;14.57;8.80;;;;;;;2.14;99.02;100035.06;4975897;28;20294;-76
2023/01/15 11:00:21;;;;;;;16.23;9.67;;;;;;;2.26;98.74;100041.94;4972682;28;20274;-75
2023/01/15 11:03:07;;;;;;;14.67;9.60;;;;;;;2.31;98.99;100039.75;5028143;28;20746;-80
2023/01/15 11:05:34;;;;;;;15.57;9.53;;;;;;;2.26;98.51;100031.41;5034341;28;20264;-76
2023/01/15 11:08:03;;;;;;;12.80;9.20;;;;;;;2.31;99.22;100038.91;5016592;28;20703;-72
2023/01/15 11:10:29;;;;;;;14.43;9.03;;;;;;;2.32;99.06;100023.06;5033315;28;20283;-70
2023/01/15 11:21:24;;;;;;;15.70;9.23;;;;;;;2.37;98.39;100020.03;5036416;28;20303;-74
2023/01/15 11:23:51;;;;;;;16.80;9.23;;;;;;;2.34;98.36;100002.72;5032792;28;20317;-77
2023/01/15 11:26:23;;;;;;;14.47;9.20;;;;;;;2.31;98.70;99987.19;5031950;28;20265;-73
2023/01/15 11:28:48;;;;;;;14.07;9.17;;;;;;;2.37;97.84;99991.13;5034689;28;20302;-75
2023/01/15 11:31:15;;;;;;;13.20;9.17;;;;;;;2.40;97.79;99993.50;5039932;28;20617;-77
2023/01/15 11:33:59;;;;;;;12.50;8.73;;;;;;;2.38;97.90;99988.38;5038807;28;20029;-75
2023/01/15 11:36:27;;;;;;;13.00;8.93;;;;;;;2.43;97.39;99985.34;5023451;28;20770;-73
2023/01/15 11:38:52;;;;;;;26.63;13.97;;;;;;;2.35;97.61;99977.28;5040266;28;20284;-76
2023/01/15 11:53:17;;;;;;;19.77;11.90;;;;;;;2.40;98.88;99985.63;5034608;28;20264;-81
2023/01/15 11:56:12;;;;;;;18.40;10.17;;;;;;;2.38;98.39;99984.91;5032354;28;20580;-80
2023/01/15 11:58:53;;;;;;;13.03;8.57;;;;;;;2.32;99.44;99985.44;5031436;28;20317;-75
2023/01/15 12:05:04;;;;;;;26.37;12.30;;;;;;;2.18;100.00;99942.75;5033534;28;20264;-82
2023/01/15 12:07:30;;;;;;;16.40;9.73;;;;;;;2.12;100.00;99945.06;5014984;28;20287;-82
2023/01/15 12:10:04;;;;;;;12.93;8.73;;;;;;;2.22;100.00;99950.38;5033344;28;20264;-83
2023/01/15 12:12:38;;;;;;;14.30;8.07;;;;;;;2.14;100.00;99933.47;5033466;28;20256;-80
2023/01/15 12:15:10;;;;;;;12.23;8.47;;;;;;;2.24;100.00;99946.66;5017876;28;20300;-72
2023/01/15 12:17:38;;;;;;;18.30;10.67;;;;;;;2.17;100.00;99932.38;5035633;28;20310;-71
2023/01/15 12:20:17;;;;;;;14.95;8.77;;;;;;;2.18;100.00;99942.75;5035636;28;20266;-78
2023/01/15 12:23:23;;;;;;;14.30;9.00;;;;;;;2.09;100.00;99924.31;5018703;28;20470;-78
2023/01/15 12:25:59;;;;;;;14.93;9.23;;;;;;;2.08;100.00;99923.47;5036859;28;20306;-76
2023/01/15 12:28:30;;;;;;;16.30;10.03;;;;;;;2.00;100.00;99912.75;5037166;28;20264;-77
2023/01/15 12:31:12;;;;;;;17.33;11.90;;;;;;;1.96;100.00;99913.97;5035694;28;20283;-74
2023/01/15 12:34:14;;;;;;;17.20;9.67;;;;;;;1.95;100.00;99922.00;5036038;28;20260;-75
2023/01/15 12:37:04;;;;;;;13.60;7.97;;;;;;;1.89;100.00;99907.59;5017579;28;20334;-77
2023/01/15 12:39:37;;;;;;;14.57;9.07;;;;;;;1.83;100.00;99887.94;5034947;28;20264;-73
2023/01/15 12:45:30;;;;;;;17.73;10.50;;;;;;;1.80;100.00;99896.06;5034318;28;20275;-84
2023/01/15 12:48:10;;;;;;;17.73;9.57;;;;;;;1.78;100.00;99887.50;4972125;28;20313;-73